KGAG/GAG METAR and TAF weather

Enter ICAO airport designator
Station Type Date Time Source
KGAG METAR 2020/01/17 22:53 UTC NOAA

KGAG 172253Z AUTO 19025G31KT 9SM CLR 06/03 A2978 RMK AO2 PK WND 19033/2239 SLP094 T00610033


Station Type Date Time Source
KGAG Decoded METAR 2020/01/17 22:53 UTC NOAA

GAGE AIRPORT, OK, United States (KGAG) 36-18N 99-46W 668M
Jan 17, 2020 - 05:53 PM EST / 2020.01.17 2253 UTC
Wind: from the S (190 degrees) at 29 MPH (25 KT) gusting to 36 MPH (31 KT):0
Visibility: 9 mile(s):0
Sky conditions: clear
Temperature: 43.0 F (6.1 C)
Dew Point: 37.9 F (3.3 C)
Relative Humidity: 82%
Pressure (altimeter): 29.78 in. Hg (1008 hPa)
ob: KGAG 172253Z AUTO 19025G31KT 9SM CLR 06/03 A2978 RMK AO2 PK WND 19033/2239 SLP094 T00610033
cycle: 23

Station Type Date Time Source
KGAG TAF 2018/03/21 06:22 UTC NOAA

TAF KGAG 210520Z 2106/2206 VRB04KT P6SM SCT250
FM211300 16008KT P6SM SCT250
FM211800 18012G22KT P6SM BKN250

Example: see airport list